createdAt,value
2018-12-13T00:02:08.524Z,17.60
2018-12-13T00:04:36.119Z,17.60
2018-12-13T00:07:03.676Z,17.77
2018-12-13T00:09:31.275Z,17.20
2018-12-13T00:11:58.840Z,18.23
2018-12-13T00:14:26.429Z,18.63
2018-12-13T00:16:53.977Z,18.10
2018-12-13T00:19:21.550Z,18.83
2018-12-13T00:21:49.109Z,17.60
2018-12-13T00:24:16.742Z,18.10
2018-12-13T00:26:44.322Z,17.80
2018-12-13T00:29:11.911Z,19.07
2018-12-13T00:31:39.497Z,17.97
2018-12-13T00:34:07.091Z,18.90
2018-12-13T00:36:39.707Z,19.83
2018-12-13T00:39:05.781Z,19.47
2018-12-13T00:41:33.344Z,19.27
2018-12-13T00:44:00.937Z,21.00
2018-12-13T00:46:28.523Z,20.50
2018-12-13T00:48:56.064Z,19.10
2018-12-13T00:51:23.645Z,20.57
2018-12-13T00:53:51.928Z,20.33
2018-12-13T00:56:19.512Z,19.43
2018-12-13T00:58:47.095Z,20.47
2018-12-13T01:01:14.693Z,20.70
2018-12-13T01:03:42.288Z,20.50
2018-12-13T01:06:09.840Z,19.03
2018-12-13T01:08:37.403Z,20.80
2018-12-13T01:11:04.977Z,19.77
2018-12-13T01:13:32.559Z,20.70
2018-12-13T01:16:00.145Z,20.80
2018-12-13T01:18:27.750Z,21.17
2018-12-13T01:20:55.382Z,21.93
2018-12-13T01:23:22.986Z,21.27
2018-12-13T01:25:50.560Z,21.10
2018-12-13T01:28:18.192Z,21.57
2018-12-13T01:30:45.955Z,23.13
2018-12-13T01:33:14.061Z,23.80
2018-12-13T01:35:41.799Z,23.73
2018-12-13T01:38:09.640Z,23.80
2018-12-13T01:40:37.280Z,22.77
2018-12-13T01:43:04.952Z,24.63
2018-12-13T01:45:35.867Z,21.83
2018-12-13T01:48:03.476Z,23.13
2018-12-13T01:50:31.105Z,23.90
2018-12-13T01:52:58.710Z,22.90
2018-12-13T01:55:26.430Z,26.20
2018-12-13T01:57:54.154Z,26.37
2018-12-13T02:00:22.261Z,26.13
2018-12-13T02:02:50.116Z,26.97
2018-12-13T02:05:18.218Z,26.33
2018-12-13T02:07:45.850Z,25.93
2018-12-13T02:10:13.438Z,27.47
2018-12-13T02:12:41.547Z,27.63
2018-12-13T02:15:09.784Z,26.90
2018-12-13T02:17:37.954Z,25.10
2018-12-13T02:20:05.934Z,25.20
2018-12-13T02:22:34.162Z,26.50
2018-12-13T02:25:01.815Z,27.17
2018-12-13T02:27:29.414Z,28.10
2018-12-13T02:29:56.992Z,26.30
2018-12-13T02:32:24.680Z,27.07
2018-12-13T02:34:52.314Z,27.03
2018-12-13T02:37:19.971Z,26.90
2018-12-13T02:39:47.571Z,28.73
2018-12-13T02:42:16.284Z,28.40
2018-12-13T02:44:44.244Z,27.47
2018-12-13T02:47:11.841Z,27.53
2018-12-13T02:49:39.443Z,28.37
2018-12-13T02:52:07.052Z,29.70
2018-12-13T02:54:34.623Z,28.60
2018-12-13T02:57:02.332Z,28.03
2018-12-13T02:59:29.916Z,29.40
2018-12-13T03:01:57.496Z,29.10
2018-12-13T03:04:25.183Z,26.80
2018-12-13T03:06:52.803Z,25.80
2018-12-13T03:09:20.485Z,26.93
2018-12-13T03:11:48.062Z,26.63
2018-12-13T03:14:15.682Z,26.23
2018-12-13T03:16:43.293Z,27.90
2018-12-13T03:19:10.873Z,27.20
2018-12-13T03:21:38.484Z,28.23
2018-12-13T03:24:06.083Z,28.37
2018-12-13T03:26:33.817Z,28.30
2018-12-13T03:29:01.444Z,26.60
2018-12-13T03:31:29.006Z,27.83
2018-12-13T03:33:56.558Z,27.00
2018-12-13T03:36:24.158Z,27.07
2018-12-13T03:38:51.700Z,26.10
2018-12-13T03:41:19.570Z,26.40
2018-12-13T03:43:47.119Z,26.47
2018-12-13T03:46:14.722Z,26.43
2018-12-13T03:48:42.277Z,26.77
2018-12-13T03:51:09.848Z,26.30
2018-12-13T03:53:37.435Z,25.57
2018-12-13T03:56:05.365Z,25.53
2018-12-13T03:58:33.252Z,25.50
2018-12-13T04:01:00.912Z,25.30
2018-12-13T04:03:28.467Z,26.13
2018-12-13T04:05:56.032Z,25.30
2018-12-13T04:08:23.619Z,27.20
2018-12-13T04:10:51.154Z,24.27
2018-12-13T04:13:18.711Z,23.00
2018-12-13T04:15:46.253Z,23.70
2018-12-13T04:18:13.885Z,23.60
2018-12-13T04:20:41.510Z,24.20
2018-12-13T04:23:09.102Z,22.93
2018-12-13T04:25:36.724Z,22.37
2018-12-13T04:28:04.303Z,22.90
2018-12-13T04:30:31.895Z,22.50
2018-12-13T04:32:59.476Z,23.20
2018-12-13T04:35:27.444Z,22.33
2018-12-13T04:37:55.106Z,21.73
2018-12-13T04:40:22.679Z,21.53
2018-12-13T04:42:50.254Z,23.13
2018-12-13T04:45:17.895Z,22.27
2018-12-13T04:47:45.506Z,22.97
2018-12-13T04:50:13.128Z,20.60
2018-12-13T04:52:40.838Z,22.17
2018-12-13T04:55:08.450Z,22.00
2018-12-13T04:57:36.015Z,23.53
2018-12-13T05:00:03.973Z,22.30
2018-12-13T05:02:31.684Z,22.77
2018-12-13T05:04:59.225Z,23.90
2018-12-13T05:07:26.893Z,23.77
2018-12-13T05:09:54.491Z,23.57
2018-12-13T05:12:22.077Z,23.47
2018-12-13T05:14:49.699Z,24.87
2018-12-13T05:17:17.612Z,24.00
2018-12-13T05:19:45.159Z,23.47
2018-12-13T05:22:12.751Z,26.90
2018-12-13T05:24:40.369Z,24.27
2018-12-13T05:27:08.267Z,24.83
2018-12-13T05:29:35.869Z,24.13
2018-12-13T05:32:03.408Z,25.90
2018-12-13T05:34:30.999Z,24.43
2018-12-13T05:36:58.575Z,25.43
2018-12-13T05:39:26.151Z,25.97
2018-12-13T05:41:53.902Z,24.80
2018-12-13T05:44:21.536Z,23.57
2018-12-13T05:46:49.264Z,23.30
2018-12-13T05:49:16.891Z,22.87
2018-12-13T05:51:44.488Z,22.27
2018-12-13T05:54:12.075Z,22.93
2018-12-13T05:56:40.019Z,22.43
2018-12-13T05:59:07.655Z,21.63
2018-12-13T06:01:35.225Z,22.33
2018-12-13T06:04:02.886Z,23.00
2018-12-13T06:06:30.446Z,22.90
2018-12-13T06:08:58.053Z,23.70
2018-12-13T06:11:25.901Z,22.87
2018-12-13T06:13:53.464Z,22.40
2018-12-13T06:16:21.105Z,23.00
2018-12-13T06:18:48.722Z,22.90
2018-12-13T06:21:16.864Z,23.60
2018-12-13T06:23:44.418Z,23.10
2018-12-13T06:26:12.116Z,24.33
2018-12-13T06:28:39.683Z,25.50
2018-12-13T06:31:07.290Z,24.53
2018-12-13T06:33:34.976Z,24.13
2018-12-13T06:36:02.560Z,24.73
2018-12-13T06:38:30.173Z,26.43
2018-12-13T06:40:57.805Z,25.70
2018-12-13T06:43:25.378Z,25.20
2018-12-13T06:45:53.019Z,24.67
2018-12-13T06:48:20.644Z,25.50
2018-12-13T06:50:48.237Z,23.97
2018-12-13T06:53:15.837Z,24.43
2018-12-13T06:55:43.400Z,25.47
2018-12-13T06:58:10.995Z,25.13
2018-12-13T07:00:38.897Z,24.20
2018-12-13T07:03:06.545Z,26.43
2018-12-13T07:05:34.386Z,25.97
2018-12-13T07:08:07.612Z,25.00
2018-12-13T07:10:31.880Z,26.77
2018-12-13T07:12:59.545Z,28.10
2018-12-13T07:15:27.237Z,26.53
2018-12-13T07:17:54.837Z,27.13
2018-12-13T07:20:22.491Z,26.67
2018-12-13T07:22:50.029Z,27.03
2018-12-13T07:25:17.649Z,26.87
2018-12-13T07:27:45.246Z,27.47
2018-12-13T07:30:12.943Z,27.80
2018-12-13T07:32:40.573Z,26.83
2018-12-13T07:35:08.183Z,26.40
2018-12-13T07:37:35.784Z,27.83
2018-12-13T07:40:04.705Z,26.60
2018-12-13T07:42:32.988Z,29.07
2018-12-13T07:45:02.010Z,25.77
2018-12-13T07:47:29.812Z,24.90
2018-12-13T07:49:57.748Z,25.00
2018-12-13T07:52:25.338Z,26.97
2018-12-13T07:54:52.935Z,25.80
2018-12-13T07:57:20.595Z,25.70
2018-12-13T07:59:48.514Z,25.50
2018-12-13T08:02:16.119Z,25.30
2018-12-13T08:04:43.686Z,22.00
2018-12-13T08:07:11.282Z,24.77
2018-12-13T08:09:38.852Z,24.33
2018-12-13T08:12:06.427Z,24.63
2018-12-13T08:14:35.033Z,24.47
2018-12-13T08:17:02.599Z,24.07
2018-12-13T08:19:30.529Z,26.00
2018-12-13T08:21:58.151Z,22.30
2018-12-13T08:24:25.961Z,23.40
2018-12-13T08:26:53.670Z,24.90
2018-12-13T08:29:21.397Z,23.63
2018-12-13T08:31:49.032Z,23.50
2018-12-13T08:34:16.651Z,24.90
2018-12-13T08:36:44.246Z,25.80
2018-12-13T08:39:11.868Z,23.87
2018-12-13T08:41:39.465Z,24.33
2018-12-13T08:44:07.095Z,23.57
2018-12-13T08:46:36.595Z,22.50
2018-12-13T08:49:04.681Z,23.47
2018-12-13T08:51:32.319Z,23.27
2018-12-13T08:53:59.913Z,23.20
2018-12-13T08:56:27.462Z,22.70
2018-12-13T08:58:55.384Z,22.23
2018-12-13T09:01:22.982Z,24.47
2018-12-13T09:03:50.810Z,22.80
2018-12-13T09:06:18.419Z,24.57
2018-12-13T09:08:46.354Z,23.50
2018-12-13T09:11:13.929Z,22.93
2018-12-13T09:13:41.586Z,23.20
2018-12-13T09:16:09.167Z,22.73
2018-12-13T09:18:36.737Z,24.13
2018-12-13T09:21:04.505Z,22.70
2018-12-13T09:23:32.158Z,23.00
2018-12-13T09:25:59.730Z,22.30
2018-12-13T09:28:27.313Z,22.70
2018-12-13T09:30:54.925Z,23.40
2018-12-13T09:33:22.691Z,22.77
2018-12-13T09:35:50.368Z,21.10
2018-12-13T09:38:18.137Z,22.47
2018-12-13T09:40:45.886Z,23.10
2018-12-13T09:43:13.462Z,21.73
2018-12-13T09:45:41.039Z,22.87
2018-12-13T09:48:08.657Z,23.40
2018-12-13T09:50:36.229Z,24.40
2018-12-13T09:53:03.795Z,22.70
2018-12-13T09:55:31.388Z,22.50
2018-12-13T09:57:59.051Z,22.43
2018-12-13T10:00:27.000Z,22.30
2018-12-13T10:05:35.232Z,22.60
2018-12-13T10:08:02.836Z,22.80
2018-12-13T10:10:30.411Z,21.37
2018-12-13T10:12:57.977Z,22.07
2018-12-13T10:15:31.836Z,21.90
2018-12-13T10:17:55.599Z,21.57
2018-12-13T10:20:23.225Z,21.90
2018-12-13T10:22:50.868Z,21.40
2018-12-13T10:25:18.463Z,22.60
2018-12-13T10:27:46.100Z,22.70
2018-12-13T10:30:13.729Z,22.87
2018-12-13T10:32:41.360Z,23.53
2018-12-13T10:35:11.419Z,24.23
2018-12-13T10:37:38.824Z,23.20
2018-12-13T10:40:06.743Z,25.33
2018-12-13T10:42:34.337Z,24.83
2018-12-13T10:45:01.962Z,23.67
2018-12-13T10:47:29.635Z,22.50
2018-12-13T10:49:57.637Z,23.30
2018-12-13T10:52:25.217Z,23.67
2018-12-13T10:54:52.837Z,22.13
2018-12-13T10:57:20.488Z,20.83
2018-12-13T10:59:48.091Z,20.80
2018-12-13T11:02:21.180Z,20.67
2018-12-13T11:04:48.814Z,21.47
2018-12-13T11:07:16.451Z,18.90
2018-12-13T11:09:44.035Z,20.70
2018-12-13T11:12:11.907Z,21.10
2018-12-13T11:14:39.561Z,18.20
2018-12-13T11:17:07.325Z,19.00
2018-12-13T11:19:34.860Z,20.40
2018-12-13T11:22:02.502Z,18.70
2018-12-13T11:24:30.102Z,20.80
2018-12-13T11:27:01.777Z,19.17
2018-12-13T11:29:41.340Z,19.30
2018-12-13T11:32:08.947Z,22.20
2018-12-13T11:34:36.619Z,20.00
2018-12-13T11:37:04.268Z,19.00
2018-12-13T11:39:31.970Z,19.00
2018-12-13T11:41:59.598Z,20.03
2018-12-13T11:44:27.263Z,19.83
2018-12-13T11:46:54.878Z,20.53
2018-12-13T11:49:23.406Z,19.93
2018-12-13T11:51:52.918Z,19.77
2018-12-13T11:54:24.536Z,20.30
2018-12-13T11:56:52.115Z,18.03
2018-12-13T11:59:19.942Z,18.00
2018-12-13T12:01:50.374Z,19.23
2018-12-13T12:04:19.451Z,19.70
2018-12-13T12:06:47.147Z,18.20
2018-12-13T12:09:14.871Z,18.13
2018-12-13T12:11:42.975Z,16.17
2018-12-13T12:14:10.560Z,16.73
2018-12-13T12:16:38.223Z,16.90
2018-12-13T12:19:05.870Z,16.90
2018-12-13T12:21:33.672Z,17.67
2018-12-13T12:24:01.461Z,17.97
2018-12-13T12:26:29.070Z,18.03
2018-12-13T12:28:56.659Z,18.67
2018-12-13T12:31:24.255Z,18.20
2018-12-13T12:33:51.853Z,17.87
2018-12-13T12:36:19.528Z,18.90
2018-12-13T12:38:47.122Z,19.70
2018-12-13T12:41:14.701Z,20.70
2018-12-13T12:43:42.309Z,20.77
2018-12-13T12:46:09.847Z,19.87
2018-12-13T12:48:37.486Z,20.10
2018-12-13T12:51:05.068Z,20.03
2018-12-13T12:53:32.752Z,20.10
2018-12-13T12:56:00.374Z,20.20
2018-12-13T12:58:27.974Z,20.60
2018-12-13T13:00:55.591Z,20.87
2018-12-13T13:03:23.186Z,22.67
2018-12-13T13:05:50.928Z,21.63
2018-12-13T13:08:18.583Z,23.40
2018-12-13T13:10:46.289Z,21.57
2018-12-13T13:13:13.978Z,20.77
2018-12-13T13:15:41.607Z,22.00
2018-12-13T13:18:09.221Z,22.40
2018-12-13T13:20:36.795Z,21.33
2018-12-13T13:23:04.456Z,23.10
2018-12-13T13:25:32.131Z,23.83
2018-12-13T13:27:59.724Z,23.47
2018-12-13T13:30:27.452Z,24.00
2018-12-13T13:32:55.069Z,23.13
2018-12-13T13:35:22.689Z,22.93
2018-12-13T13:37:50.374Z,22.40
2018-12-13T13:40:17.931Z,23.03
2018-12-13T13:42:45.548Z,22.73
2018-12-13T13:45:13.331Z,22.50
2018-12-13T13:47:41.118Z,23.47
2018-12-13T13:50:09.379Z,21.17
2018-12-13T13:52:37.724Z,22.13
2018-12-13T13:55:05.906Z,21.53
2018-12-13T13:57:33.546Z,22.40
2018-12-13T14:00:01.145Z,22.53
2018-12-13T14:02:28.802Z,23.30
2018-12-13T14:04:56.417Z,23.30
2018-12-13T14:07:24.023Z,22.23
2018-12-13T14:09:51.753Z,24.20
2018-12-13T14:12:19.518Z,24.93
2018-12-13T14:14:47.177Z,24.17
2018-12-13T14:17:14.834Z,24.33
2018-12-13T14:19:42.495Z,23.37
2018-12-13T14:22:10.119Z,21.53
2018-12-13T14:24:37.809Z,24.50
2018-12-13T14:27:05.893Z,21.60
2018-12-13T14:29:33.514Z,24.27
2018-12-13T14:32:01.102Z,22.60
2018-12-13T14:34:28.710Z,22.23
2018-12-13T14:36:56.360Z,20.93
2018-12-13T14:39:23.983Z,22.47
2018-12-13T14:41:51.647Z,22.50
2018-12-13T14:44:19.277Z,21.60
2018-12-13T14:46:46.888Z,20.70
2018-12-13T14:49:14.593Z,21.23
2018-12-13T14:51:42.180Z,21.90
2018-12-13T14:54:10.080Z,22.50
2018-12-13T14:56:37.695Z,21.83
2018-12-13T14:59:05.369Z,21.63
2018-12-13T15:01:34.350Z,21.57
2018-12-13T15:04:02.201Z,22.63
2018-12-13T15:06:29.764Z,23.07
2018-12-13T15:08:57.453Z,20.80
2018-12-13T15:11:25.080Z,21.07
2018-12-13T15:13:53.320Z,20.10
2018-12-13T15:16:21.261Z,20.43
2018-12-13T15:18:48.991Z,20.60
2018-12-13T15:21:16.707Z,20.07
2018-12-13T15:23:44.386Z,19.77
2018-12-13T15:26:11.997Z,21.10
2018-12-13T15:28:39.562Z,20.43
2018-12-13T15:31:07.292Z,20.37
2018-12-13T15:33:35.260Z,20.17
2018-12-13T15:36:02.980Z,20.50
2018-12-13T15:38:30.835Z,20.00
2018-12-13T15:40:58.967Z,20.00
2018-12-13T15:43:26.585Z,19.73
2018-12-13T15:45:54.564Z,20.10
2018-12-13T15:48:22.181Z,20.63
2018-12-13T15:50:49.851Z,21.30
2018-12-13T15:53:17.439Z,20.50
2018-12-13T15:55:45.151Z,22.80
2018-12-13T15:58:12.753Z,21.93
2018-12-13T16:00:40.376Z,21.50
2018-12-13T16:03:08.055Z,22.50
2018-12-13T16:05:35.667Z,20.83
2018-12-13T16:08:03.516Z,20.83
2018-12-13T16:10:31.137Z,21.20
2018-12-13T16:12:58.811Z,21.80
2018-12-13T16:15:26.674Z,23.50
2018-12-13T16:17:54.263Z,21.40
2018-12-13T16:20:21.883Z,22.07
2018-12-13T16:22:49.613Z,20.27
2018-12-13T16:25:17.418Z,20.93
2018-12-13T16:27:44.993Z,21.90
2018-12-13T16:30:12.771Z,21.57
2018-12-13T16:32:40.429Z,21.30
2018-12-13T16:35:08.365Z,19.57
2018-12-13T16:37:35.931Z,21.40
2018-12-13T16:40:10.145Z,22.83
2018-12-13T16:42:33.863Z,22.27
2018-12-13T16:45:01.426Z,22.20
2018-12-13T16:47:29.343Z,22.33
2018-12-13T16:49:56.941Z,21.60
2018-12-13T16:52:24.822Z,20.50
2018-12-13T16:54:52.512Z,21.10
2018-12-13T16:57:20.138Z,20.80
2018-12-13T16:59:48.014Z,21.07
2018-12-13T17:02:15.714Z,22.40
2018-12-13T17:04:43.518Z,20.70
2018-12-13T17:07:11.125Z,20.40
2018-12-13T17:09:38.746Z,21.20
2018-12-13T17:12:06.409Z,19.90
2018-12-13T17:14:34.121Z,21.00
2018-12-13T17:17:01.723Z,20.87
2018-12-13T17:19:29.323Z,20.87
2018-12-13T17:21:57.243Z,21.43
2018-12-13T17:24:24.829Z,21.93
2018-12-13T17:26:52.436Z,22.17
2018-12-13T17:29:20.325Z,21.40
2018-12-13T17:31:48.169Z,22.37
2018-12-13T17:34:15.739Z,22.03
2018-12-13T17:36:43.439Z,22.13
2018-12-13T17:39:11.011Z,23.90
2018-12-13T17:41:38.647Z,23.23
2018-12-13T17:44:06.251Z,24.07
2018-12-13T17:46:33.825Z,25.17
2018-12-13T17:49:01.398Z,24.93
2018-12-13T17:51:28.984Z,23.47
2018-12-13T17:53:56.878Z,30.53
2018-12-13T17:56:24.577Z,23.57
2018-12-13T17:58:52.184Z,22.00
2018-12-13T18:01:19.930Z,22.07
2018-12-13T18:03:47.723Z,21.50
2018-12-13T18:06:15.382Z,21.80
2018-12-13T18:08:43.070Z,20.87
2018-12-13T18:11:10.644Z,21.60
2018-12-13T18:13:38.244Z,19.40
2018-12-13T18:16:05.965Z,24.83
2018-12-13T18:18:33.614Z,23.63
2018-12-13T18:21:01.305Z,26.33
2018-12-13T18:23:28.920Z,20.03
2018-12-13T18:25:56.665Z,18.00
2018-12-13T18:28:24.269Z,18.03
2018-12-13T18:30:52.113Z,16.60
2018-12-13T18:33:20.214Z,17.53
2018-12-13T18:35:47.814Z,18.00
2018-12-13T18:38:15.419Z,16.87
2018-12-13T18:40:43.044Z,17.60
2018-12-13T18:43:10.606Z,17.10
2018-12-13T18:45:38.175Z,17.70
2018-12-13T18:48:05.885Z,18.37
2018-12-13T18:50:33.746Z,18.73
2018-12-13T18:53:01.403Z,19.53
2018-12-13T18:55:29.088Z,19.13
2018-12-13T18:57:56.749Z,19.17
2018-12-13T19:00:24.320Z,18.70
2018-12-13T19:02:52.305Z,22.33
2018-12-13T19:05:20.122Z,16.20
2018-12-13T19:07:47.735Z,16.27
2018-12-13T19:10:15.394Z,16.90
2018-12-13T19:12:43.042Z,15.83
2018-12-13T19:15:10.853Z,16.20
2018-12-13T19:17:38.460Z,16.83
2018-12-13T19:20:06.824Z,17.63
2018-12-13T19:22:37.438Z,17.07
2018-12-13T19:25:06.674Z,17.73
2018-12-13T19:27:34.374Z,18.77
2018-12-13T19:30:02.068Z,18.80
2018-12-13T19:32:29.768Z,18.50
2018-12-13T19:35:00.241Z,17.33
2018-12-13T19:37:26.977Z,19.27
2018-12-13T19:39:54.604Z,20.23
2018-12-13T19:42:22.183Z,16.80
2018-12-13T19:44:50.229Z,18.27
2018-12-13T19:47:17.969Z,18.07
2018-12-13T19:49:46.548Z,18.77
2018-12-13T19:52:16.757Z,16.53
2018-12-13T19:54:44.485Z,17.07
2018-12-13T19:57:13.461Z,17.90
2018-12-13T19:59:41.319Z,16.90
2018-12-13T20:02:10.725Z,15.90
2018-12-13T20:04:38.379Z,16.80
2018-12-13T20:07:06.800Z,18.03
2018-12-13T20:09:34.377Z,17.87
2018-12-13T20:12:02.007Z,19.37
2018-12-13T20:14:29.661Z,17.93
2018-12-13T20:16:57.226Z,17.40
2018-12-13T20:19:25.114Z,19.70
2018-12-13T20:21:52.798Z,16.90
2018-12-13T20:24:20.486Z,18.43
2018-12-13T20:26:48.073Z,18.50
2018-12-13T20:29:16.123Z,19.20
2018-12-13T20:31:43.712Z,17.80
2018-12-13T20:34:13.024Z,18.10
2018-12-13T20:36:40.579Z,17.33
2018-12-13T20:39:08.970Z,17.30
2018-12-13T20:41:37.562Z,16.80
2018-12-13T20:44:05.195Z,18.43
2018-12-13T20:46:33.839Z,19.27
2018-12-13T20:49:01.586Z,19.83
2018-12-13T20:51:29.939Z,19.83
2018-12-13T20:53:57.563Z,18.50
2018-12-13T20:56:25.237Z,18.83
2018-12-13T20:58:52.858Z,19.53
2018-12-13T21:01:21.352Z,21.10
2018-12-13T21:03:49.262Z,19.70
2018-12-13T21:06:19.283Z,19.87
2018-12-13T21:08:47.345Z,19.33
2018-12-13T21:11:15.025Z,20.47
2018-12-13T21:13:42.609Z,18.80
2018-12-13T21:16:10.255Z,19.00
2018-12-13T21:18:37.993Z,18.97
2018-12-13T21:21:06.068Z,18.67
2018-12-13T21:23:33.650Z,18.77
2018-12-13T21:26:01.394Z,18.60
2018-12-13T21:28:29.187Z,20.23
2018-12-13T21:30:56.766Z,20.00
2018-12-13T21:33:24.384Z,18.87
2018-12-13T21:35:52.067Z,19.77
2018-12-13T21:38:19.755Z,19.30
2018-12-13T21:40:48.712Z,19.87
2018-12-13T21:43:16.600Z,20.50
2018-12-13T21:45:44.181Z,21.13
2018-12-13T21:48:11.804Z,22.87
2018-12-13T21:50:39.398Z,21.60
2018-12-13T21:53:07.057Z,21.77
2018-12-13T21:55:34.666Z,22.40
2018-12-13T21:58:02.239Z,21.30
2018-12-13T22:00:29.855Z,21.97
2018-12-13T22:02:57.423Z,22.73
2018-12-13T22:05:24.974Z,22.30
2018-12-13T22:07:52.575Z,21.80
2018-12-13T22:10:20.141Z,20.20
2018-12-13T22:12:47.870Z,22.53
2018-12-13T22:15:15.414Z,22.90
2018-12-13T22:17:43.043Z,25.70
2018-12-13T22:20:11.004Z,31.63
2018-12-13T22:22:38.612Z,21.70
2018-12-13T22:25:06.612Z,20.90
2018-12-13T22:27:34.510Z,20.80
2018-12-13T22:30:02.065Z,19.77
2018-12-13T22:32:29.627Z,20.53
2018-12-13T22:34:57.226Z,21.17
2018-12-13T22:37:24.954Z,20.10
2018-12-13T22:39:52.535Z,22.40
2018-12-13T22:42:20.108Z,21.43
2018-12-13T22:44:47.676Z,22.00
2018-12-13T22:47:15.502Z,19.50
2018-12-13T22:49:43.386Z,20.87
2018-12-13T22:52:10.990Z,21.60
2018-12-13T22:54:38.604Z,22.30
2018-12-13T22:57:06.204Z,21.80
2018-12-13T22:59:34.130Z,20.00
2018-12-13T23:02:02.001Z,21.67
2018-12-13T23:04:29.636Z,21.70
2018-12-13T23:06:57.239Z,21.37
2018-12-13T23:09:25.082Z,20.80
2018-12-13T23:11:52.949Z,20.50
2018-12-13T23:14:20.536Z,19.77
2018-12-13T23:16:48.150Z,20.10
2018-12-13T23:19:15.737Z,21.17
2018-12-13T23:21:43.296Z,21.77
2018-12-13T23:24:10.903Z,21.40
2018-12-13T23:26:38.835Z,20.30
2018-12-13T23:29:06.698Z,20.37
2018-12-13T23:31:34.361Z,18.87
2018-12-13T23:34:01.981Z,19.33
2018-12-13T23:36:29.558Z,20.93
2018-12-13T23:38:57.177Z,19.50
2018-12-13T23:41:24.742Z,19.27
2018-12-13T23:43:52.315Z,18.20
2018-12-13T23:46:19.854Z,18.50
2018-12-13T23:48:47.400Z,19.30
2018-12-13T23:51:15.121Z,19.57
2018-12-13T23:53:42.870Z,20.17
2018-12-13T23:56:10.633Z,19.67
2018-12-13T23:58:38.515Z,18.77
